MMCS/CJS METAR and TAF weather

Enter ICAO airport designator
Station Type Date Time Source
MMCS METAR 2019/08/18 02:40 UTC NOAA

MMCS 180240Z 28010KT 10SM FEW100 SCT250 34/08 A2991 RMK SLP990 54000 967 8/048


Station Type Date Time Source
MMCS Decoded METAR 2019/08/18 02:40 UTC NOAA

Station name not available
Aug 17, 2019 - 10:40 PM EDT / 2019.08.18 0240 UTC
Wind: from the W (280 degrees) at 12 MPH (10 KT):0
Visibility: 10 mile(s):0
Sky conditions: partly cloudy
Temperature: 93 F (34 C)
Dew Point: 46 F (8 C)
Relative Humidity: 20%
Pressure (altimeter): 29.91 in. Hg (1012 hPa)
Pressure tendency: the same as three hours ago
ob: MMCS 180240Z 28010KT 10SM FEW100 SCT250 34/08 A2991 RMK SLP990 54000 967 8/048
cycle: 2

Station Type Date Time Source
MMCS TAF 2019/08/18 06:16 UTC NOAA

TAF MMCS 180411Z 1806/1906 28008KT P6SM SCT100 SCT250
FM181800 22010KT P6SM BKN090 BKN250
FM190500 26005KT P6SM SCT250

Example: see airport list